createdAt,value
2019-05-22T00:00:24.467Z,17.48
2019-05-22T00:03:01.410Z,22.70
2019-05-22T00:05:36.888Z,23.50
2019-05-22T00:08:13.357Z,24.85
2019-05-22T00:10:48.892Z,21.50
2019-05-22T00:13:25.752Z,23.15
2019-05-22T00:16:00.770Z,25.17
2019-05-22T00:18:36.513Z,22.65
2019-05-22T00:21:11.913Z,23.92
2019-05-22T00:23:47.500Z,19.95
2019-05-22T00:26:23.633Z,19.80
2019-05-22T00:29:02.164Z,23.12
2019-05-22T00:31:37.585Z,19.05
2019-05-22T00:34:14.977Z,19.98
2019-05-22T00:36:50.363Z,19.40
2019-05-22T00:39:26.008Z,18.57
2019-05-22T00:42:01.301Z,15.55
2019-05-22T00:44:36.993Z,14.10
2019-05-22T00:47:14.651Z,15.70
2019-05-22T00:49:52.072Z,17.00
2019-05-22T00:52:45.386Z,13.72
2019-05-22T00:55:28.398Z,15.88
2019-05-22T00:58:04.639Z,14.05
2019-05-22T01:00:51.271Z,15.53
2019-05-22T01:03:27.233Z,13.08
2019-05-22T01:06:03.157Z,16.90
2019-05-22T01:08:39.610Z,15.30
2019-05-22T01:11:16.728Z,14.68
2019-05-22T01:13:51.951Z,17.90
2019-05-22T01:16:27.343Z,14.28
2019-05-22T01:19:02.137Z,17.48
2019-05-22T01:21:38.177Z,13.62
2019-05-22T01:24:14.861Z,17.12
2019-05-22T01:26:53.001Z,14.50
2019-05-22T01:29:28.491Z,21.30
2019-05-22T01:32:08.253Z,17.80
2019-05-22T01:34:43.561Z,22.45
2019-05-22T01:37:19.759Z,17.07
2019-05-22T01:40:14.394Z,15.13
2019-05-22T01:45:26.233Z,19.70
2019-05-22T01:48:06.391Z,16.27
2019-05-22T01:50:50.463Z,16.73
2019-05-22T01:53:26.646Z,15.65
2019-05-22T01:56:01.449Z,17.10
2019-05-22T01:58:39.007Z,20.45
2019-05-22T02:01:17.786Z,16.02
2019-05-22T02:03:53.859Z,20.43
2019-05-22T02:06:30.885Z,17.48
2019-05-22T02:09:35.456Z,14.10
2019-05-22T02:12:20.013Z,20.25
2019-05-22T02:14:55.955Z,14.58
2019-05-22T02:17:34.813Z,18.65
2019-05-22T02:20:13.866Z,17.65
2019-05-22T02:22:51.125Z,16.00
2019-05-22T02:25:28.386Z,20.12
2019-05-22T02:28:04.773Z,14.80
2019-05-22T02:30:40.748Z,20.50
2019-05-22T02:33:17.199Z,17.42
2019-05-22T02:35:52.925Z,20.57
2019-05-22T02:38:27.283Z,18.27
2019-05-22T02:41:04.240Z,16.50
2019-05-22T02:43:40.859Z,20.90
2019-05-22T02:46:17.192Z,23.00
2019-05-22T02:48:53.782Z,20.25
2019-05-22T02:51:29.223Z,20.17
2019-05-22T02:54:05.870Z,17.40
2019-05-22T02:56:41.237Z,24.27
2019-05-22T02:59:16.850Z,18.48
2019-05-22T03:01:59.608Z,21.57
2019-05-22T03:04:55.509Z,23.92
2019-05-22T03:07:30.397Z,20.35
2019-05-22T03:10:05.190Z,24.70
2019-05-22T03:12:40.668Z,20.23
2019-05-22T03:15:17.781Z,18.45
2019-05-22T03:17:52.897Z,20.25
2019-05-22T03:20:29.119Z,19.17
2019-05-22T03:23:20.718Z,15.45
2019-05-22T03:25:56.111Z,12.13
2019-05-22T03:28:32.096Z,14.33
2019-05-22T03:31:08.559Z,15.38
2019-05-22T03:33:44.972Z,12.80
2019-05-22T03:36:40.308Z,18.25
2019-05-22T03:39:15.756Z,12.03
2019-05-22T03:41:51.867Z,12.10
2019-05-22T03:44:28.390Z,10.23
2019-05-22T03:47:04.171Z,13.03
2019-05-22T03:49:40.156Z,11.53
2019-05-22T03:52:25.958Z,10.68
2019-05-22T03:55:04.694Z,11.97
2019-05-22T03:57:39.993Z,9.35
2019-05-22T04:00:20.427Z,10.72
2019-05-22T04:02:56.528Z,12.23
2019-05-22T04:05:32.434Z,19.00
2019-05-22T04:08:08.271Z,12.58
2019-05-22T04:11:00.999Z,14.85
2019-05-22T04:13:37.063Z,21.75
2019-05-22T04:16:13.912Z,16.20
2019-05-22T04:18:52.109Z,22.70
2019-05-22T04:21:33.537Z,19.62
2019-05-22T04:24:07.949Z,18.70
2019-05-22T04:26:45.350Z,14.63
2019-05-22T04:29:22.414Z,13.75
2019-05-22T04:32:01.725Z,11.68
2019-05-22T04:34:57.190Z,12.60
2019-05-22T04:37:32.895Z,14.05
2019-05-22T04:40:29.048Z,8.55
2019-05-22T04:43:07.127Z,8.78
2019-05-22T04:45:43.574Z,11.55
2019-05-22T04:48:19.071Z,10.85
2019-05-22T04:50:56.093Z,16.02
2019-05-22T04:53:32.259Z,9.95
2019-05-22T04:56:06.626Z,11.68
2019-05-22T04:58:42.210Z,7.20
2019-05-22T05:01:20.124Z,9.00
2019-05-22T05:03:56.994Z,10.72
2019-05-22T05:06:33.246Z,7.78
2019-05-22T05:09:10.195Z,10.82
2019-05-22T05:11:45.700Z,11.33
2019-05-22T05:14:20.270Z,11.20
2019-05-22T05:16:55.415Z,10.68
2019-05-22T05:19:34.460Z,9.23
2019-05-22T05:22:09.329Z,12.25
2019-05-22T05:24:44.700Z,10.43
2019-05-22T05:27:20.339Z,10.75
2019-05-22T05:29:56.853Z,7.78
2019-05-22T05:35:25.261Z,9.55
2019-05-22T05:38:00.759Z,10.28
2019-05-22T05:40:38.260Z,9.03
2019-05-22T05:43:15.896Z,10.20
2019-05-22T05:45:52.763Z,10.38
2019-05-22T05:48:28.834Z,11.38
2019-05-22T05:51:12.137Z,9.80
2019-05-22T05:54:01.620Z,11.65
2019-05-22T05:56:38.712Z,11.08
2019-05-22T05:59:14.242Z,11.50
2019-05-22T06:01:50.248Z,11.70
2019-05-22T06:04:34.821Z,18.80
2019-05-22T06:07:07.865Z,11.65
2019-05-22T06:09:44.064Z,12.75
2019-05-22T06:12:20.171Z,14.23
2019-05-22T06:14:57.207Z,16.20
2019-05-22T06:18:00.353Z,10.88
2019-05-22T06:21:01.062Z,11.68
2019-05-22T06:23:37.470Z,14.87
2019-05-22T06:26:16.312Z,12.68
2019-05-22T06:28:52.043Z,10.48
2019-05-22T06:31:42.663Z,15.83
2019-05-22T06:34:18.620Z,14.40
2019-05-22T06:36:55.132Z,12.80
2019-05-22T06:39:30.200Z,13.68
2019-05-22T06:42:07.678Z,14.35
2019-05-22T06:44:44.296Z,15.30
2019-05-22T06:47:22.221Z,14.53
2019-05-22T06:49:58.774Z,13.65
2019-05-22T06:52:33.517Z,13.48
2019-05-22T06:55:10.741Z,10.80
2019-05-22T06:57:46.220Z,10.32
2019-05-22T07:00:23.783Z,9.85
2019-05-22T07:02:59.465Z,9.95
2019-05-22T07:05:35.352Z,9.15
2019-05-22T07:08:12.623Z,10.32
2019-05-22T07:10:48.251Z,8.78
2019-05-22T07:13:24.122Z,8.85
2019-05-22T07:16:02.445Z,9.08
2019-05-22T07:18:42.812Z,9.08
2019-05-22T07:21:17.932Z,9.63
2019-05-22T07:23:53.446Z,10.35
2019-05-22T07:26:28.059Z,9.45
2019-05-22T07:29:05.175Z,7.97
2019-05-22T07:31:42.207Z,8.70
2019-05-22T07:34:20.426Z,11.53
2019-05-22T07:36:54.979Z,8.23
2019-05-22T07:39:29.555Z,8.85
2019-05-22T07:42:04.644Z,9.58
2019-05-22T07:44:39.738Z,8.68
2019-05-22T07:47:16.394Z,6.28
2019-05-22T07:49:56.956Z,10.32
2019-05-22T07:52:32.962Z,9.30
2019-05-22T07:55:08.931Z,8.50
2019-05-22T07:57:45.743Z,10.43
2019-05-22T08:00:24.461Z,7.17
2019-05-22T08:03:10.698Z,6.60
2019-05-22T08:05:52.152Z,8.03
2019-05-22T08:08:29.309Z,6.70
2019-05-22T08:11:07.626Z,9.20
2019-05-22T08:13:43.804Z,7.37
2019-05-22T08:16:24.963Z,10.08
2019-05-22T08:18:59.903Z,16.10
2019-05-22T08:21:39.141Z,11.45
2019-05-22T08:24:14.843Z,13.00
2019-05-22T08:26:54.285Z,7.53
2019-05-22T08:29:30.448Z,11.33
2019-05-22T08:32:07.545Z,9.18
2019-05-22T08:34:43.893Z,10.55
2019-05-22T08:37:26.271Z,12.30
2019-05-22T08:40:03.550Z,9.48
2019-05-22T08:42:45.808Z,10.05
2019-05-22T08:45:23.644Z,9.08
2019-05-22T08:47:59.629Z,8.00
2019-05-22T08:50:39.869Z,9.18
2019-05-22T08:53:18.558Z,9.18
2019-05-22T08:55:55.291Z,10.18
2019-05-22T08:58:37.781Z,11.25
2019-05-22T09:01:22.039Z,8.50
2019-05-22T09:03:56.782Z,8.05
2019-05-22T09:06:31.659Z,7.22
2019-05-22T09:09:07.412Z,9.65
2019-05-22T09:11:43.454Z,9.85
2019-05-22T09:14:19.048Z,11.45
2019-05-22T09:16:56.846Z,7.33
2019-05-22T09:19:33.105Z,10.03
2019-05-22T09:22:09.000Z,17.30
2019-05-22T09:24:46.366Z,12.60
2019-05-22T09:27:22.975Z,14.90
2019-05-22T09:30:18.896Z,15.15
2019-05-22T09:32:53.462Z,18.45
2019-05-22T09:35:29.463Z,18.27
2019-05-22T09:38:04.962Z,12.63
2019-05-22T09:40:39.484Z,14.47
2019-05-22T09:43:13.864Z,14.63
2019-05-22T09:45:49.369Z,15.15
2019-05-22T09:48:25.385Z,17.15
2019-05-22T09:51:01.908Z,15.50
2019-05-22T09:53:37.690Z,17.30
2019-05-22T09:56:13.401Z,15.32
2019-05-22T09:58:49.574Z,14.53
2019-05-22T10:01:25.193Z,10.15
2019-05-22T10:04:01.544Z,13.15
2019-05-22T10:06:36.240Z,15.05
2019-05-22T10:09:12.575Z,12.10
2019-05-22T10:11:51.346Z,12.50
2019-05-22T10:14:26.816Z,12.85
2019-05-22T10:17:07.788Z,11.63
2019-05-22T10:19:43.521Z,13.60
2019-05-22T10:22:19.463Z,13.03
2019-05-22T10:25:13.473Z,11.88
2019-05-22T10:27:32.154Z,12.40
2019-05-22T10:30:07.909Z,12.40
2019-05-22T10:32:45.219Z,13.05
2019-05-22T10:35:23.801Z,10.00
2019-05-22T10:38:02.946Z,10.43
2019-05-22T10:40:38.613Z,11.05
2019-05-22T10:43:12.905Z,11.63
2019-05-22T10:45:47.922Z,12.90
2019-05-22T10:48:24.047Z,13.83
2019-05-22T10:51:00.767Z,13.18
2019-05-22T10:53:36.799Z,12.68
2019-05-22T10:56:11.965Z,13.50
2019-05-22T10:58:48.450Z,9.20
2019-05-22T11:01:30.909Z,8.13
2019-05-22T11:04:06.049Z,10.75
2019-05-22T11:06:46.578Z,7.72
2019-05-22T11:09:22.240Z,9.75
2019-05-22T11:11:57.269Z,7.53
2019-05-22T11:14:33.735Z,8.53
2019-05-22T11:19:51.141Z,9.10
2019-05-22T11:22:26.847Z,10.68
2019-05-22T11:25:01.895Z,8.48
2019-05-22T11:27:36.683Z,8.13
2019-05-22T11:30:15.661Z,9.23
2019-05-22T11:32:50.787Z,7.97
2019-05-22T11:35:26.593Z,8.85
2019-05-22T11:38:02.266Z,9.95
2019-05-22T11:43:30.702Z,7.95
2019-05-22T11:46:09.874Z,10.60
2019-05-22T11:48:46.479Z,7.37
2019-05-22T11:51:24.903Z,7.45
2019-05-22T11:54:09.286Z,8.93
2019-05-22T11:56:39.845Z,7.10
2019-05-22T11:59:16.198Z,9.95
2019-05-22T12:01:53.357Z,7.37
2019-05-22T12:04:46.467Z,11.45
2019-05-22T12:07:08.841Z,13.00
2019-05-22T12:09:43.452Z,9.53
2019-05-22T12:12:19.018Z,9.23
2019-05-22T12:14:54.018Z,12.33
2019-05-22T12:17:37.921Z,11.55
2019-05-22T12:20:08.530Z,8.20
2019-05-22T12:22:53.099Z,11.65
2019-05-22T12:25:29.727Z,9.70
2019-05-22T12:28:07.377Z,11.97
2019-05-22T12:30:41.856Z,12.82
2019-05-22T12:33:16.975Z,10.15
2019-05-22T12:35:55.003Z,22.75
2019-05-22T12:38:30.464Z,38.42
2019-05-22T12:41:09.359Z,37.08
2019-05-22T12:43:48.719Z,24.92
2019-05-22T12:46:39.337Z,23.35
2019-05-22T12:49:16.722Z,26.02
2019-05-22T12:51:52.268Z,26.52
2019-05-22T12:54:43.411Z,26.73
2019-05-22T12:57:06.566Z,30.27
2019-05-22T12:59:44.765Z,23.57
2019-05-22T13:02:21.457Z,22.35
2019-05-22T13:04:56.440Z,27.32
2019-05-22T13:07:32.113Z,25.20
2019-05-22T13:10:08.291Z,25.65
2019-05-22T13:12:42.982Z,24.12
2019-05-22T13:15:17.946Z,22.73
2019-05-22T13:17:54.798Z,19.85
2019-05-22T13:20:42.577Z,18.23
2019-05-22T13:23:11.017Z,20.72
2019-05-22T13:25:48.130Z,23.55
2019-05-22T13:28:23.821Z,18.60
2019-05-22T13:31:00.771Z,17.32
2019-05-22T13:33:37.793Z,16.52
2019-05-22T13:36:14.648Z,14.23
2019-05-22T13:38:51.378Z,15.45
2019-05-22T13:41:26.307Z,18.27
2019-05-22T13:44:03.555Z,18.65
2019-05-22T13:46:39.672Z,15.75
2019-05-22T13:49:17.363Z,13.90
2019-05-22T13:52:09.927Z,15.00
2019-05-22T13:54:48.167Z,14.60
2019-05-22T13:57:26.146Z,13.93
2019-05-22T14:00:09.378Z,13.70
2019-05-22T14:05:40.067Z,13.88
2019-05-22T14:08:14.972Z,11.75
2019-05-22T14:10:51.198Z,10.30
2019-05-22T14:13:31.699Z,14.90
2019-05-22T14:16:19.151Z,10.65
2019-05-22T14:18:59.362Z,13.60
2019-05-22T14:21:36.446Z,12.07
2019-05-22T14:24:12.022Z,10.18
2019-05-22T14:26:47.977Z,9.83
2019-05-22T14:29:22.250Z,9.23
2019-05-22T14:31:58.085Z,10.70
2019-05-22T14:34:33.339Z,9.78
2019-05-22T14:37:09.755Z,9.43
2019-05-22T14:39:50.153Z,10.82
2019-05-22T14:42:26.281Z,9.60
2019-05-22T14:45:02.992Z,9.68
2019-05-22T14:47:41.075Z,11.78
2019-05-22T14:50:19.101Z,10.38
2019-05-22T14:52:55.327Z,10.08
2019-05-22T14:55:32.038Z,10.18
2019-05-22T14:58:10.811Z,9.95
2019-05-22T15:03:45.355Z,12.82
2019-05-22T15:09:13.226Z,10.95
2019-05-22T15:11:52.231Z,8.63
2019-05-22T15:14:27.214Z,8.53
2019-05-22T15:19:56.805Z,9.98
2019-05-22T15:22:33.914Z,12.45
2019-05-22T15:28:06.006Z,9.43
2019-05-22T15:30:45.112Z,8.65
2019-05-22T15:33:22.597Z,12.37
2019-05-22T15:35:58.215Z,10.95
2019-05-22T15:38:34.560Z,10.65
2019-05-22T15:41:10.351Z,12.15
2019-05-22T15:43:55.807Z,10.23
2019-05-22T15:46:35.469Z,10.48
2019-05-22T15:49:12.868Z,7.83
2019-05-22T15:51:50.829Z,9.65
2019-05-22T15:54:28.904Z,11.18
2019-05-22T15:57:09.743Z,10.68
2019-05-22T15:59:49.093Z,11.18
2019-05-22T16:02:27.617Z,9.58
2019-05-22T16:05:03.096Z,9.35
2019-05-22T16:07:43.892Z,8.90
2019-05-22T16:10:21.876Z,8.55
2019-05-22T16:12:59.862Z,8.80
2019-05-22T16:15:40.838Z,8.55
2019-05-22T16:18:20.938Z,10.50
2019-05-22T16:20:58.492Z,8.00
2019-05-22T16:23:43.992Z,8.60
2019-05-22T16:26:22.481Z,8.30
2019-05-22T16:29:06.977Z,8.70
2019-05-22T16:31:47.479Z,9.25
2019-05-22T16:34:27.805Z,9.10
2019-05-22T16:37:04.134Z,8.60
2019-05-22T16:39:41.391Z,10.40
2019-05-22T16:42:29.029Z,8.68
2019-05-22T16:45:04.066Z,10.60
2019-05-22T16:47:41.448Z,9.10
2019-05-22T16:50:18.023Z,9.00
2019-05-22T16:53:11.744Z,9.43
2019-05-22T16:55:47.736Z,9.05
2019-05-22T16:58:24.621Z,9.93
2019-05-22T17:04:00.698Z,10.93
2019-05-22T17:06:39.642Z,9.45
2019-05-22T17:09:15.537Z,9.50
2019-05-22T17:11:50.648Z,10.50
2019-05-22T17:14:32.118Z,9.80
2019-05-22T17:17:11.376Z,8.80
2019-05-22T17:19:48.182Z,10.82
2019-05-22T17:22:24.408Z,10.38
2019-05-22T17:25:03.753Z,10.32
2019-05-22T17:27:39.705Z,11.63
2019-05-22T17:30:20.511Z,10.28
2019-05-22T17:32:53.449Z,9.33
2019-05-22T17:35:30.096Z,12.85
2019-05-22T17:38:06.276Z,9.53
2019-05-22T17:40:45.214Z,10.10
2019-05-22T17:43:21.599Z,8.78
2019-05-22T17:45:58.239Z,10.05
2019-05-22T17:48:34.316Z,9.45
2019-05-22T17:51:15.985Z,9.08
2019-05-22T17:53:54.197Z,11.60
2019-05-22T17:56:31.174Z,11.35
2019-05-22T17:59:10.105Z,10.20
2019-05-22T18:01:48.630Z,9.08
2019-05-22T18:04:24.007Z,13.45
2019-05-22T18:06:59.271Z,8.93
2019-05-22T18:09:35.190Z,9.00
2019-05-22T18:12:12.951Z,9.08
2019-05-22T18:14:50.555Z,10.60
2019-05-22T18:17:25.966Z,11.85
2019-05-22T18:20:00.756Z,11.50
2019-05-22T18:22:36.653Z,9.15
2019-05-22T18:25:12.147Z,8.80
2019-05-22T18:27:50.628Z,8.98
2019-05-22T18:30:28.594Z,8.75
2019-05-22T18:33:03.043Z,10.82
2019-05-22T18:35:38.582Z,11.10
2019-05-22T18:38:12.868Z,14.65
2019-05-22T18:40:48.327Z,8.40
2019-05-22T18:43:24.063Z,9.28
2019-05-22T18:45:59.527Z,11.10
2019-05-22T18:48:34.874Z,9.75
2019-05-22T18:51:10.060Z,9.10
2019-05-22T18:53:44.230Z,12.33
2019-05-22T18:56:19.809Z,9.33
2019-05-22T18:58:54.908Z,8.58
2019-05-22T19:01:30.108Z,9.25
2019-05-22T19:04:05.531Z,8.88
2019-05-22T19:06:40.228Z,9.38
2019-05-22T19:09:15.916Z,8.15
2019-05-22T19:11:51.880Z,9.15
2019-05-22T19:14:27.144Z,12.13
2019-05-22T19:17:03.844Z,12.88
2019-05-22T19:19:40.124Z,9.18
2019-05-22T19:22:33.806Z,9.55
2019-05-22T19:25:09.765Z,8.90
2019-05-22T19:27:45.201Z,9.30
2019-05-22T19:30:20.986Z,9.15
2019-05-22T19:32:56.678Z,10.25
2019-05-22T19:35:31.410Z,9.75
2019-05-22T19:38:07.576Z,9.68
2019-05-22T19:40:41.846Z,9.43
2019-05-22T19:43:16.183Z,11.43
2019-05-22T19:45:52.247Z,9.05
2019-05-22T19:48:26.952Z,9.13
2019-05-22T19:51:02.409Z,9.58
2019-05-22T19:53:37.158Z,9.60
2019-05-22T19:56:11.906Z,8.98
2019-05-22T19:58:46.403Z,10.48
2019-05-22T20:01:21.067Z,8.85
2019-05-22T20:03:55.503Z,10.82
2019-05-22T20:06:30.685Z,9.43
2019-05-22T20:09:08.117Z,9.60
2019-05-22T20:11:44.006Z,11.50
2019-05-22T20:14:20.767Z,9.53
2019-05-22T20:16:56.514Z,9.48
2019-05-22T20:19:31.850Z,8.88
2019-05-22T20:22:09.062Z,10.13
2019-05-22T20:24:43.657Z,10.50
2019-05-22T20:27:17.885Z,11.93
2019-05-22T20:29:55.721Z,9.90
2019-05-22T20:32:31.322Z,16.97
2019-05-22T20:35:08.370Z,11.55
2019-05-22T20:37:47.037Z,11.78
2019-05-22T20:40:23.615Z,11.95
2019-05-22T20:42:58.098Z,11.50
2019-05-22T20:45:33.775Z,12.30
2019-05-22T20:48:14.873Z,9.85
2019-05-22T20:50:50.452Z,12.73
2019-05-22T20:53:25.738Z,9.63
2019-05-22T20:56:01.369Z,9.80
2019-05-22T20:58:38.234Z,11.88
2019-05-22T21:01:18.235Z,11.68
2019-05-22T21:03:53.315Z,9.95
2019-05-22T21:06:30.507Z,9.00
2019-05-22T21:09:08.844Z,10.25
2019-05-22T21:11:45.481Z,10.63
2019-05-22T21:14:20.057Z,10.20
2019-05-22T21:16:55.909Z,10.70
2019-05-22T21:19:31.901Z,13.20
2019-05-22T21:22:09.415Z,11.80
2019-05-22T21:24:44.252Z,10.95
2019-05-22T21:27:18.320Z,11.55
2019-05-22T21:29:55.278Z,10.48
2019-05-22T21:32:31.601Z,11.53
2019-05-22T21:35:08.477Z,10.68
2019-05-22T21:37:43.855Z,10.60
2019-05-22T21:40:21.860Z,11.78
2019-05-22T21:42:57.832Z,10.13
2019-05-22T21:45:32.819Z,9.23
2019-05-22T21:48:10.059Z,10.70
2019-05-22T21:50:46.194Z,9.35
2019-05-22T21:53:23.394Z,9.65
2019-05-22T21:56:05.340Z,11.73
2019-05-22T21:58:36.500Z,9.80
2019-05-22T22:01:15.367Z,11.22
2019-05-22T22:03:51.430Z,10.40
2019-05-22T22:06:26.683Z,10.78
2019-05-22T22:09:01.457Z,12.93
2019-05-22T22:11:37.960Z,13.40
2019-05-22T22:14:12.549Z,10.70
2019-05-22T22:16:48.332Z,9.20
2019-05-22T22:19:23.892Z,10.10
2019-05-22T22:21:59.599Z,12.25
2019-05-22T22:24:35.274Z,9.93
2019-05-22T22:27:11.436Z,10.23
2019-05-22T22:29:46.728Z,11.40
2019-05-22T22:32:22.997Z,11.73
2019-05-22T22:34:57.633Z,11.08
2019-05-22T22:37:32.710Z,11.83
2019-05-22T22:40:09.473Z,10.00
2019-05-22T22:42:46.749Z,11.08
2019-05-22T22:45:33.536Z,14.40
2019-05-22T22:48:09.700Z,13.25
2019-05-22T22:50:44.704Z,10.90
2019-05-22T22:53:20.579Z,13.48
2019-05-22T22:55:55.718Z,10.25
2019-05-22T22:58:32.304Z,11.30
2019-05-22T23:01:10.730Z,12.70
2019-05-22T23:03:48.606Z,13.30
2019-05-22T23:06:23.123Z,13.83
2019-05-22T23:08:57.500Z,10.82
2019-05-22T23:11:34.189Z,12.75
2019-05-22T23:14:10.324Z,12.00
2019-05-22T23:16:45.599Z,11.88
2019-05-22T23:19:35.892Z,14.78
2019-05-22T23:22:10.127Z,15.08
2019-05-22T23:27:46.684Z,14.10
2019-05-22T23:30:23.242Z,14.03
2019-05-22T23:32:59.963Z,12.53
2019-05-22T23:35:36.321Z,15.55
2019-05-22T23:38:10.546Z,13.45
2019-05-22T23:40:46.909Z,11.28
2019-05-22T23:43:22.602Z,18.27
2019-05-22T23:45:56.689Z,15.85
2019-05-22T23:48:32.492Z,16.40
2019-05-22T23:51:09.019Z,16.40
2019-05-22T23:53:43.647Z,17.48
2019-05-22T23:56:19.572Z,14.45
2019-05-22T23:58:56.645Z,16.62
